Time;durP1;ratioP1;P1;durP2;ratioP2;P2;SDS_P1;SDS_P2;PMS_P1;PMS_P2;Temp;Humidity;BMP_temperature;BMP_pressure;BME280_temperature;BME280_humidity;BME280_pressure;Samples;Min_cycle;Max_cycle;Signal;HPM_P1;HPM_P2
2021/06/26 00:01:56;;;;;;;32.70;21.87;;;16.60;86.10;;;;;;5016327;28;20395;-82
2021/06/26 00:04:22;;;;;;;34.47;22.07;;;16.40;87.20;;;;;;5016707;28;20389;-81
2021/06/26 00:06:48;;;;;;;35.23;23.10;;;16.30;89.00;;;;;;5026189;28;20477;-82
2021/06/26 00:09:13;;;;;;;33.83;22.58;;;16.30;88.80;;;;;;5019659;28;20407;-82
2021/06/26 00:11:39;;;;;;;33.40;21.27;;;16.40;87.20;;;;;;5037691;28;20387;-82
2021/06/26 00:14:06;;;;;;;33.50;22.23;;;16.70;82.60;;;;;;5045057;28;20370;-78
2021/06/26 00:16:46;;;;;;;33.47;21.80;;;16.80;81.30;;;;;;5050193;28;20402;-79
2021/06/26 00:19:12;;;;;;;30.40;21.75;;;16.80;80.90;;;;;;5032730;28;20412;-79
2021/06/26 00:21:38;;;;;;;36.20;22.60;;;16.60;82.80;;;;;;5011311;28;20451;-84
2021/06/26 00:24:04;;;;;;;33.72;21.70;;;16.50;83.70;;;;;;4999444;28;20483;-82
2021/06/26 00:26:30;;;;;;;39.00;22.42;;;16.60;83.70;;;;;;5018970;28;20393;-82
2021/06/26 00:28:55;;;;;;;29.50;21.10;;;16.70;82.90;;;;;;5034197;28;20391;-80
2021/06/26 00:31:21;;;;;;;34.60;22.40;;;16.70;82.70;;;;;;5016775;28;20874;-82
2021/06/26 00:33:47;;;;;;;32.87;22.53;;;16.70;81.70;;;;;;5017374;28;20438;-80
2021/06/26 00:36:13;;;;;;;34.47;22.23;;;16.60;82.10;;;;;;5036149;28;20441;-81
2021/06/26 00:38:39;;;;;;;34.20;21.88;;;16.60;83.10;;;;;;5016623;28;20399;-80
2021/06/26 00:41:08;;;;;;;32.20;22.52;;;16.70;82.20;;;;;;5036589;28;20759;-80
2021/06/26 00:43:33;;;;;;;34.35;22.02;;;16.60;82.20;;;;;;5017581;28;20465;-81
2021/06/26 00:46:02;;;;;;;35.22;23.55;;;16.60;82.40;;;;;;5029765;28;20396;-80
2021/06/26 00:48:28;;;;;;;34.00;22.27;;;16.50;83.70;;;;;;5019412;28;20387;-82
2021/06/26 00:50:54;;;;;;;37.57;22.20;;;16.40;84.30;;;;;;5038312;28;20395;-79
2021/06/26 00:53:20;;;;;;;34.25;22.98;;;16.40;85.80;;;;;;5022821;28;20384;-79
2021/06/26 00:55:52;;;;;;;34.33;23.25;;;16.40;85.30;;;;;;5037192;28;20405;-82
2021/06/26 00:58:20;;;;;;;36.50;23.70;;;16.30;88.20;;;;;;4998708;28;20417;-80
2021/06/26 01:00:46;;;;;;;38.60;23.90;;;16.30;88.40;;;;;;5011396;28;20398;-77
2021/06/26 01:03:12;;;;;;;42.05;23.27;;;16.30;88.60;;;;;;5041041;28;20391;-79
2021/06/26 01:05:38;;;;;;;34.97;22.70;;;16.30;87.70;;;;;;5040097;28;20411;-81
2021/06/26 01:08:03;;;;;;;40.10;23.20;;;16.30;87.90;;;;;;5039824;28;20415;-81
2021/06/26 01:10:30;;;;;;;35.92;24.67;;;16.30;88.60;;;;;;5021863;28;20394;-80
2021/06/26 01:12:57;;;;;;;35.03;23.75;;;16.20;89.70;;;;;;5040626;28;20915;-81
2021/06/26 01:15:22;;;;;;;36.95;23.83;;;16.10;91.50;;;;;;5026222;28;20435;-80
2021/06/26 01:17:48;;;;;;;33.10;23.30;;;16.20;90.60;;;;;;5038914;28;20403;-80
2021/06/26 01:20:15;;;;;;;35.35;23.73;;;16.20;89.80;;;;;;5041758;28;20391;-78
2021/06/26 01:22:46;;;;;;;34.33;22.83;;;16.20;90.50;;;;;;5023967;28;20406;-78
2021/06/26 01:25:14;;;;;;;36.75;24.15;;;16.20;91.10;;;;;;5040108;28;20375;-79
2021/06/26 01:27:41;;;;;;;36.63;23.07;;;16.20;90.90;;;;;;5020285;28;20390;-79
2021/06/26 01:30:07;;;;;;;35.37;23.93;;;16.10;91.30;;;;;;5031024;28;20421;-79
2021/06/26 01:32:33;;;;;;;41.97;24.23;;;16.10;91.70;;;;;;5027530;28;20413;-77
2021/06/26 01:34:59;;;;;;;37.60;24.10;;;16.00;92.50;;;;;;5028949;28;20471;-79
2021/06/26 01:37:25;;;;;;;37.83;24.20;;;16.00;93.10;;;;;;5031060;28;20743;-77
2021/06/26 01:39:50;;;;;;;34.43;23.47;;;16.00;93.50;;;;;;5029545;28;20509;-78
2021/06/26 01:42:16;;;;;;;37.63;25.90;;;15.90;93.20;;;;;;5045171;28;20397;-79
2021/06/26 01:44:41;;;;;;;39.63;25.58;;;15.80;94.60;;;;;;5009927;28;20403;-80
2021/06/26 01:47:08;;;;;;;35.70;24.52;;;15.80;95.20;;;;;;5028564;28;20452;-80
2021/06/26 01:49:35;;;;;;;42.20;24.80;;;15.70;96.40;;;;;;5037031;28;20752;-80
2021/06/26 01:52:04;;;;;;;33.17;23.38;;;15.70;98.00;;;;;;5042623;28;20419;-78
2021/06/26 01:54:30;;;;;;;38.13;25.58;;;15.50;97.90;;;;;;5044024;28;20384;-78
2021/06/26 01:56:56;;;;;;;36.72;25.38;;;15.60;99.10;;;;;;5037222;28;20781;-79
2021/06/26 01:59:22;;;;;;;38.93;23.77;;;15.60;98.00;;;;;;5025582;28;20727;-79
2021/06/26 02:01:47;;;;;;;35.58;25.08;;;15.80;96.30;;;;;;5024471;28;20381;-79
2021/06/26 02:04:13;;;;;;;39.17;26.30;;;15.80;96.10;;;;;;5032897;28;20399;-82
2021/06/26 02:06:39;;;;;;;36.43;25.07;;;15.70;97.20;;;;;;5044734;28;20740;-80
2021/06/26 02:09:07;;;;;;;41.07;24.80;;;15.60;97.50;;;;;;5029283;28;20472;-81
2021/06/26 02:11:32;;;;;;;40.57;28.03;;;15.70;97.10;;;;;;5035353;28;20420;-81
2021/06/26 02:13:58;;;;;;;41.47;26.40;;;15.60;97.80;;;;;;5035074;28;20490;-79
2021/06/26 02:16:24;;;;;;;40.90;26.80;;;15.50;99.00;;;;;;5031981;28;20398;-79
2021/06/26 02:18:49;;;;;;;38.83;25.50;;;15.40;99.50;;;;;;5027992;28;20958;-78
2021/06/26 02:21:15;;;;;;;39.08;26.30;;;15.50;99.30;;;;;;5037774;28;20386;-77
2021/06/26 02:23:41;;;;;;;41.88;26.42;;;15.50;98.20;;;;;;5013698;28;20395;-74
2021/06/26 02:26:06;;;;;;;42.50;27.48;;;15.70;96.60;;;;;;4998780;28;20393;-74
2021/06/26 02:28:32;;;;;;;46.60;26.25;;;15.80;95.90;;;;;;5015208;28;20396;-75
2021/06/26 02:30:58;;;;;;;40.72;26.60;;;15.80;95.00;;;;;;5033091;28;20399;-76
2021/06/26 02:33:23;;;;;;;40.28;26.48;;;15.60;95.20;;;;;;5035163;28;20428;-76
2021/06/26 02:35:49;;;;;;;38.30;26.13;;;15.60;95.60;;;;;;5016280;28;20461;-75
2021/06/26 02:38:15;;;;;;;40.53;25.53;;;15.60;96.70;;;;;;5033272;28;20414;-75
2021/06/26 02:40:40;;;;;;;44.87;28.07;;;15.50;97.20;;;;;;5015492;28;20453;-73
2021/06/26 02:43:06;;;;;;;44.15;27.15;;;15.60;96.20;;;;;;5034008;28;20387;-75
2021/06/26 02:45:31;;;;;;;42.53;26.35;;;15.60;94.60;;;;;;5034675;28;20410;-74
2021/06/26 02:47:57;;;;;;;41.83;27.10;;;15.60;94.80;;;;;;5025277;28;20400;-75
2021/06/26 02:50:22;;;;;;;45.73;27.20;;;15.60;94.60;;;;;;5034514;28;20399;-75
2021/06/26 02:52:48;;;;;;;45.38;27.90;;;15.60;94.90;;;;;;5014288;28;20403;-75
2021/06/26 02:55:14;;;;;;;46.33;27.92;;;15.50;95.10;;;;;;4997172;28;20385;-75
2021/06/26 02:57:39;;;;;;;48.60;28.17;;;15.50;95.70;;;;;;5017238;28;20398;-74
2021/06/26 03:00:07;;;;;;;47.38;28.05;;;15.50;95.80;;;;;;5033969;28;20909;-74
2021/06/26 03:02:33;;;;;;;43.60;27.35;;;15.50;95.90;;;;;;5033397;28;20449;-74
2021/06/26 03:04:58;;;;;;;45.45;28.35;;;15.50;95.30;;;;;;5033454;28;20387;-74
2021/06/26 03:07:24;;;;;;;47.22;28.08;;;15.40;97.10;;;;;;5026065;28;20511;-74
2021/06/26 03:09:49;;;;;;;49.67;27.20;;;15.40;95.90;;;;;;5032354;28;20402;-75
2021/06/26 03:12:17;;;;;;;43.28;27.50;;;15.60;95.30;;;;;;5031153;28;20502;-75
2021/06/26 03:14:42;;;;;;;46.65;28.08;;;15.60;94.10;;;;;;5031651;28;20479;-74
2021/06/26 03:17:08;;;;;;;42.78;28.10;;;15.50;95.20;;;;;;5033235;28;20959;-75
2021/06/26 03:19:34;;;;;;;43.83;28.33;;;15.60;95.40;;;;;;5032737;28;20410;-76
2021/06/26 03:21:59;;;;;;;43.10;28.70;;;15.60;94.80;;;;;;5022104;28;20503;-75
2021/06/26 03:24:27;;;;;;;44.57;27.70;;;15.70;94.50;;;;;;5054587;23;20621;-75
2021/06/26 03:26:53;;;;;;;44.33;28.63;;;15.60;94.20;;;;;;5067506;28;20462;-76
2021/06/26 03:29:18;;;;;;;40.83;27.40;;;15.50;95.50;;;;;;5083918;28;20426;-75
2021/06/26 03:31:44;;;;;;;49.77;29.77;;;15.20;98.50;;;;;;5031291;28;20387;-76
2021/06/26 03:34:10;;;;;;;50.57;29.20;;;15.10;99.90;;;;;;5030937;28;20420;-75
2021/06/26 03:36:35;;;;;;;44.42;27.60;;;15.00;99.90;;;;;;5044843;28;20486;-76
2021/06/26 03:39:01;;;;;;;46.15;28.70;;;15.00;99.90;;;;;;5052732;28;20455;-76
2021/06/26 03:41:27;;;;;;;43.47;27.70;;;15.10;99.90;;;;;;5051797;28;20386;-75
2021/06/26 03:43:55;;;;;;;44.87;27.87;;;15.10;99.90;;;;;;5050866;28;20845;-76
2021/06/26 03:46:21;;;;;;;44.03;27.92;;;15.10;99.90;;;;;;5051965;28;20478;-76
2021/06/26 03:48:46;;;;;;;45.83;26.87;;;15.20;99.90;;;;;;5050604;28;20377;-76
2021/06/26 03:51:12;;;;;;;41.27;26.50;;;15.40;99.00;;;;;;5032413;28;20410;-73
2021/06/26 03:53:38;;;;;;;42.03;27.10;;;15.40;99.80;;;;;;5037723;28;20393;-76
2021/06/26 03:56:04;;;;;;;47.15;27.80;;;15.30;99.60;;;;;;5049709;28;20479;-77
2021/06/26 03:58:29;;;;;;;42.30;27.80;;;15.40;99.60;;;;;;5041693;28;20404;-75
2021/06/26 04:00:56;;;;;;;42.73;28.40;;;15.30;99.80;;;;;;5029453;28;20402;-76
2021/06/26 04:03:22;;;;;;;49.55;28.52;;;15.60;97.10;;;;;;5029158;28;20767;-75
2021/06/26 04:05:48;;;;;;;42.90;27.98;;;15.80;94.90;;;;;;5039400;28;20402;-75
2021/06/26 04:08:14;;;;;;;41.53;26.50;;;15.70;95.80;;;;;;5050708;28;20818;-75
2021/06/26 04:10:40;;;;;;;55.10;29.77;;;15.60;97.40;;;;;;5050500;28;20464;-76
2021/06/26 04:13:06;;;;;;;40.38;27.77;;;15.50;98.00;;;;;;5050128;28;20390;-76
2021/06/26 04:15:32;;;;;;;41.72;26.55;;;15.70;97.40;;;;;;5050482;28;20385;-77
2021/06/26 04:17:58;;;;;;;44.22;28.13;;;15.80;96.90;;;;;;5049499;28;20500;-76
2021/06/26 04:20:24;;;;;;;46.90;27.90;;;15.90;93.70;;;;;;5050363;28;20464;-76
2021/06/26 04:22:49;;;;;;;37.93;25.27;;;16.10;92.50;;;;;;5049986;28;20869;-76
2021/06/26 04:25:16;;;;;;;44.27;26.70;;;16.20;91.40;;;;;;5050628;28;20386;-78
2021/06/26 04:27:42;;;;;;;40.40;26.00;;;16.30;89.50;;;;;;5034967;28;20403;-77
2021/06/26 04:30:08;;;;;;;42.90;28.05;;;16.20;90.20;;;;;;5042265;28;20397;-77
2021/06/26 04:32:36;;;;;;;39.53;26.65;;;16.20;91.70;;;;;;5041165;28;20494;-77
2021/06/26 04:35:04;;;;;;;45.10;27.65;;;16.30;92.70;;;;;;5030720;28;20383;-77
2021/06/26 04:37:30;;;;;;;43.38;28.17;;;16.40;89.50;;;;;;5033274;28;20387;-77
2021/06/26 04:39:55;;;;;;;39.25;26.50;;;16.50;89.40;;;;;;5033795;28;20405;-77
2021/06/26 04:42:21;;;;;;;44.42;28.65;;;16.60;89.50;;;;;;5041643;28;20399;-77
2021/06/26 04:44:46;;;;;;;49.80;27.73;;;16.60;88.50;;;;;;5034086;28;20445;-76
2021/06/26 04:47:12;;;;;;;48.17;29.00;;;16.60;89.10;;;;;;5046704;28;20836;-77
2021/06/26 04:49:38;;;;;;;47.00;28.50;;;16.60;87.60;;;;;;5054402;28;20396;-77
2021/06/26 04:52:04;;;;;;;48.20;27.97;;;16.70;87.60;;;;;;5054446;28;20746;-77
2021/06/26 04:54:30;;;;;;;39.73;26.20;;;16.80;86.90;;;;;;5053422;28;20470;-76
2021/06/26 04:56:56;;;;;;;43.53;27.38;;;16.80;85.30;;;;;;5053838;28;20385;-76
2021/06/26 04:59:21;;;;;;;44.33;28.52;;;16.90;85.10;;;;;;5054036;28;20401;-76
2021/06/26 05:01:47;;;;;;;43.53;28.67;;;17.00;82.80;;;;;;5046644;28;20489;-78
2021/06/26 05:04:13;;;;;;;43.80;28.57;;;17.10;82.00;;;;;;5055907;28;20430;-78
2021/06/26 05:06:38;;;;;;;42.50;27.63;;;17.30;79.10;;;;;;5053420;28;20447;-75
2021/06/26 05:09:04;;;;;;;44.97;29.08;;;17.50;76.90;;;;;;5069529;28;20966;-76
2021/06/26 05:11:30;;;;;;;50.00;31.38;;;17.60;75.90;;;;;;5063741;28;20460;-77
2021/06/26 05:13:56;;;;;;;45.20;29.50;;;17.60;74.40;;;;;;5093076;28;20405;-77
2021/06/26 05:16:21;;;;;;;47.60;29.35;;;17.70;74.60;;;;;;5077569;28;20388;-78
2021/06/26 05:18:47;;;;;;;48.28;30.67;;;17.80;72.80;;;;;;5077694;28;20930;-77
2021/06/26 05:21:13;;;;;;;48.70;30.17;;;17.80;72.60;;;;;;5067779;28;20880;-77
2021/06/26 05:23:38;;;;;;;45.63;27.93;;;17.80;72.50;;;;;;5050738;28;20840;-77
2021/06/26 05:26:04;;;;;;;43.70;29.50;;;17.90;72.30;;;;;;5055427;28;20389;-77
2021/06/26 05:28:31;;;;;;;46.78;31.08;;;18.10;69.20;;;;;;5051210;28;20399;-77
2021/06/26 05:30:57;;;;;;;49.45;29.75;;;18.20;68.30;;;;;;5053871;28;20394;-76
2021/06/26 05:33:22;;;;;;;52.87;32.07;;;18.30;67.70;;;;;;5054037;28;20826;-76
2021/06/26 05:35:49;;;;;;;46.70;30.70;;;18.20;68.40;;;;;;5048914;28;20409;-77
2021/06/26 05:38:16;;;;;;;47.10;30.00;;;18.10;70.20;;;;;;5055294;28;20500;-77
2021/06/26 05:40:41;;;;;;;47.25;31.15;;;18.10;71.20;;;;;;5054064;28;20393;-76
2021/06/26 05:43:07;;;;;;;44.92;30.02;;;18.10;71.60;;;;;;5046613;28;20898;-76
2021/06/26 05:45:32;;;;;;;52.20;31.73;;;18.20;70.40;;;;;;5054140;28;20897;-76
2021/06/26 05:47:58;;;;;;;51.23;32.73;;;18.30;68.70;;;;;;5053770;28;20377;-76
2021/06/26 05:50:24;;;;;;;53.33;33.30;;;18.40;68.60;;;;;;5052784;28;20908;-76
2021/06/26 05:52:55;;;;;;;52.03;34.35;;;18.40;66.90;;;;;;5049383;28;20404;-75
2021/06/26 05:55:21;;;;;;;51.65;33.78;;;18.40;66.00;;;;;;5048774;28;20408;-77
2021/06/26 05:57:47;;;;;;;52.60;32.75;;;18.40;62.10;;;;;;5047523;28;20409;-77
2021/06/26 06:00:15;;;;;;;47.53;31.40;;;18.50;62.20;;;;;;5051852;28;20461;-77
2021/06/26 06:02:41;;;;;;;47.50;30.57;;;18.60;60.80;;;;;;5052255;28;20446;-76
2021/06/26 06:05:12;;;;;;;41.47;28.87;;;18.70;56.40;;;;;;5052662;28;20881;-77
2021/06/26 06:07:38;;;;;;;43.15;27.70;;;18.80;55.30;;;;;;5051021;28;21141;-77
2021/06/26 06:10:05;;;;;;;41.67;26.50;;;18.90;53.90;;;;;;5053062;28;20560;-77
2021/06/26 06:12:35;;;;;;;40.25;26.95;;;19.00;53.70;;;;;;5050249;28;20393;-73
2021/06/26 06:15:02;;;;;;;38.85;25.02;;;19.10;50.70;;;;;;5052500;28;20404;-76
2021/06/26 06:17:28;;;;;;;39.63;25.90;;;19.20;50.10;;;;;;5053118;28;20393;-76
2021/06/26 06:19:54;;;;;;;41.42;25.15;;;19.30;47.20;;;;;;5053303;28;20412;-76
2021/06/26 06:22:19;;;;;;;35.00;24.48;;;19.40;46.40;;;;;;5054646;28;20404;-75
2021/06/26 06:24:45;;;;;;;33.92;23.95;;;19.40;46.90;;;;;;5040930;28;20406;-75
2021/06/26 06:27:11;;;;;;;33.50;22.80;;;19.30;47.20;;;;;;5049775;28;20861;-77
2021/06/26 06:29:36;;;;;;;35.25;24.33;;;19.40;47.80;;;;;;5066785;28;20416;-76
2021/06/26 06:32:02;;;;;;;32.97;24.30;;;19.60;46.80;;;;;;5051957;28;20421;-77
2021/06/26 06:34:28;;;;;;;34.28;23.70;;;19.60;45.90;;;;;;5052162;28;20768;-76
2021/06/26 06:36:53;;;;;;;37.83;24.75;;;19.70;45.00;;;;;;5051335;28;20393;-77
2021/06/26 06:39:20;;;;;;;36.40;23.10;;;19.70;44.40;;;;;;5052077;28;20488;-76
2021/06/26 06:41:45;;;;;;;34.47;22.38;;;19.80;45.50;;;;;;5036729;28;20395;-77
2021/06/26 06:44:11;;;;;;;31.83;22.13;;;20.10;42.10;;;;;;5036131;28;20451;-75
2021/06/26 06:46:36;;;;;;;30.77;22.17;;;20.30;40.00;;;;;;5049961;28;20519;-76
2021/06/26 06:49:02;;;;;;;33.33;22.80;;;20.20;39.30;;;;;;5050479;28;20766;-76
2021/06/26 06:51:28;;;;;;;32.33;21.43;;;20.20;39.00;;;;;;5048045;28;20425;-77
2021/06/26 06:53:53;;;;;;;33.50;22.70;;;20.20;39.20;;;;;;5051839;28;20385;-77
2021/06/26 06:56:19;;;;;;;26.80;20.42;;;20.20;38.50;;;;;;5038969;28;20393;-77
2021/06/26 06:58:44;;;;;;;28.63;20.10;;;20.20;38.10;;;;;;5063738;28;20418;-76
2021/06/26 07:01:10;;;;;;;27.00;19.70;;;20.30;38.90;;;;;;5047373;28;20425;-75
2021/06/26 07:03:35;;;;;;;31.80;20.95;;;20.60;38.10;;;;;;5048580;28;20393;-82
2021/06/26 07:06:01;;;;;;;30.80;21.87;;;20.50;37.50;;;;;;5049769;28;20898;-76
2021/06/26 07:08:26;;;;;;;32.35;22.00;;;20.40;37.50;;;;;;5042347;28;20798;-76
2021/06/26 07:10:52;;;;;;;27.23;20.77;;;20.30;38.20;;;;;;5049331;28;20908;-76
2021/06/26 07:13:18;;;;;;;28.63;18.77;;;20.50;37.70;;;;;;5047518;28;20773;-76
2021/06/26 07:15:44;;;;;;;32.33;19.05;;;20.50;37.30;;;;;;5049886;28;20394;-77
2021/06/26 07:18:11;;;;;;;26.77;17.30;;;20.60;36.70;;;;;;5050639;28;20405;-76
2021/06/26 07:20:38;;;;;;;24.70;17.02;;;20.80;35.90;;;;;;5049255;28;20413;-77
2021/06/26 07:23:04;;;;;;;23.30;17.60;;;20.70;34.40;;;;;;5048904;28;20498;-75
2021/06/26 07:25:29;;;;;;;23.50;16.95;;;20.70;33.70;;;;;;5055323;28;20401;-77
2021/06/26 07:27:55;;;;;;;21.17;16.55;;;20.70;34.70;;;;;;5050286;28;20405;-76
2021/06/26 07:30:21;;;;;;;21.53;16.60;;;20.70;34.40;;;;;;5052087;28;20393;-77
2021/06/26 07:32:46;;;;;;;22.40;17.50;;;20.80;33.70;;;;;;5051936;28;20489;-75
2021/06/26 07:35:13;;;;;;;19.67;16.10;;;20.90;33.20;;;;;;5053366;28;20381;-76
2021/06/26 07:37:39;;;;;;;24.57;17.27;;;21.10;33.60;;;;;;5053789;28;20838;-75
2021/06/26 07:40:05;;;;;;;21.83;15.80;;;21.10;32.60;;;;;;5049891;28;20436;-75
2021/06/26 07:42:31;;;;;;;23.60;17.60;;;21.10;31.40;;;;;;5049351;28;20385;-77
2021/06/26 07:44:56;;;;;;;20.63;14.90;;;21.10;31.60;;;;;;5036076;28;20743;-77
2021/06/26 07:47:22;;;;;;;20.73;16.55;;;21.50;31.30;;;;;;5050259;28;20389;-76
2021/06/26 07:49:47;;;;;;;20.20;15.40;;;21.60;30.20;;;;;;5052364;28;20461;-75
2021/06/26 07:52:13;;;;;;;18.55;15.68;;;21.60;30.00;;;;;;5041889;28;20383;-75
2021/06/26 07:54:38;;;;;;;20.63;17.07;;;21.40;29.50;;;;;;5048021;28;20405;-74
2021/06/26 07:57:04;;;;;;;21.37;16.00;;;21.40;30.50;;;;;;5049702;28;20755;-75
2021/06/26 07:59:30;;;;;;;24.98;18.15;;;21.30;30.40;;;;;;5049817;28;20410;-76
2021/06/26 08:01:56;;;;;;;21.63;15.95;;;21.20;30.60;;;;;;5050200;28;20404;-76
2021/06/26 08:04:21;;;;;;;23.63;16.60;;;21.40;30.80;;;;;;5048361;28;20398;-76
2021/06/26 08:06:47;;;;;;;20.60;15.77;;;21.60;30.30;;;;;;5048422;28;20952;-76
2021/06/26 08:09:12;;;;;;;19.83;16.00;;;21.80;29.30;;;;;;5044399;28;20386;-75
2021/06/26 08:11:38;;;;;;;23.77;17.07;;;21.90;29.20;;;;;;5053303;28;20482;-75
2021/06/26 08:14:03;;;;;;;24.45;17.10;;;21.80;28.70;;;;;;5052523;28;20439;-76
2021/06/26 08:16:29;;;;;;;23.90;16.83;;;21.70;28.70;;;;;;5056836;28;20404;-75
2021/06/26 08:18:55;;;;;;;23.33;16.02;;;21.80;29.40;;;;;;5051937;28;20417;-73
2021/06/26 08:21:22;;;;;;;21.13;16.23;;;21.80;29.90;;;;;;5055082;28;20389;-75
2021/06/26 08:23:49;;;;;;;21.58;16.52;;;22.10;29.20;;;;;;5055751;28;20450;-76
2021/06/26 08:26:15;;;;;;;24.88;17.02;;;22.10;29.50;;;;;;5056699;28;20408;-74
2021/06/26 08:28:41;;;;;;;27.50;17.58;;;22.10;28.10;;;;;;5056717;28;20408;-74
2021/06/26 08:31:07;;;;;;;24.00;18.50;;;22.00;28.40;;;;;;5045621;28;20419;-75
2021/06/26 08:33:32;;;;;;;23.05;17.00;;;22.00;27.80;;;;;;5040297;28;20467;-73
2021/06/26 08:35:58;;;;;;;22.67;17.50;;;22.10;28.40;;;;;;5056382;28;20857;-74
2021/06/26 08:38:24;;;;;;;22.37;16.47;;;22.20;27.80;;;;;;5053957;28;20524;-73
2021/06/26 08:40:54;;;;;;;23.50;17.45;;;22.20;28.40;;;;;;5050094;28;20400;-74
2021/06/26 08:43:20;;;;;;;24.10;17.35;;;22.30;27.90;;;;;;5053752;28;20473;-72
2021/06/26 08:45:46;;;;;;;28.35;18.40;;;22.40;27.80;;;;;;5056448;28;20389;-73
2021/06/26 08:48:12;;;;;;;21.63;16.40;;;22.30;27.70;;;;;;5047809;28;20894;-74
2021/06/26 08:50:39;;;;;;;27.08;18.25;;;22.50;26.60;;;;;;5057062;28;20476;-72
2021/06/26 08:53:05;;;;;;;22.15;17.10;;;22.50;26.60;;;;;;5055688;28;20886;-74
2021/06/26 08:55:30;;;;;;;19.80;15.88;;;22.60;26.80;;;;;;5056490;28;20874;-74
2021/06/26 08:57:56;;;;;;;21.70;17.30;;;22.70;26.10;;;;;;5055924;28;20389;-73
2021/06/26 09:00:25;;;;;;;20.87;16.20;;;22.80;24.70;;;;;;5056231;28;20778;-73
2021/06/26 09:02:51;;;;;;;22.65;17.85;;;22.90;25.40;;;;;;5048507;28;20454;-74
2021/06/26 09:05:30;;;;;;;22.58;17.38;;;22.90;25.80;;;;;;5036479;28;20461;-74
2021/06/26 09:08:07;;;;;;;27.23;19.85;;;23.20;25.50;;;;;;5036111;28;20379;-74
2021/06/26 09:10:33;;;;;;;25.17;18.58;;;23.00;25.30;;;;;;5041388;28;20758;-73
2021/06/26 09:13:12;;;;;;;26.20;18.53;;;23.00;26.10;;;;;;5045173;28;20463;-72
2021/06/26 09:15:38;;;;;;;20.70;17.50;;;23.00;26.00;;;;;;5036288;28;20375;-73
2021/06/26 09:18:24;;;;;;;21.53;16.70;;;23.10;25.00;;;;;;5054559;28;20407;-73
2021/06/26 09:20:52;;;;;;;26.48;17.60;;;23.30;24.20;;;;;;5055943;28;20392;-74
2021/06/26 09:23:36;;;;;;;22.77;17.98;;;23.30;23.30;;;;;;5053151;28;20395;-74
2021/06/26 09:26:11;;;;;;;27.50;18.45;;;23.50;22.90;;;;;;5041506;28;20486;-74
2021/06/26 09:28:37;;;;;;;23.80;18.70;;;23.70;21.90;;;;;;5035094;28;20393;-75
2021/06/26 09:31:04;;;;;;;22.87;18.13;;;23.60;21.50;;;;;;5051885;28;20382;-74
2021/06/26 09:33:30;;;;;;;21.63;17.90;;;23.60;21.50;;;;;;5052552;28;20381;-74
2021/06/26 09:36:11;;;;;;;23.60;18.43;;;23.70;21.40;;;;;;5052657;28;20388;-74
2021/06/26 09:38:53;;;;;;;26.40;18.20;;;23.80;21.10;;;;;;5052876;28;20900;-74
2021/06/26 09:41:19;;;;;;;24.67;18.53;;;24.10;21.10;;;;;;5044869;28;20397;-73
2021/06/26 09:43:45;;;;;;;31.20;17.50;;;24.00;20.80;;;;;;5052332;28;20449;-74
2021/06/26 09:46:15;;;;;;;25.13;16.98;;;24.20;20.90;;;;;;5061869;28;20449;-74
2021/06/26 09:48:54;;;;;;;27.20;19.10;;;24.40;20.40;;;;;;5076636;28;20385;-73
2021/06/26 09:51:23;;;;;;;25.50;17.75;;;24.40;19.00;;;;;;5053131;28;20401;-73
2021/06/26 09:54:15;;;;;;;21.35;15.57;;;24.30;17.90;;;;;;5049930;28;20797;-72
2021/06/26 09:56:46;;;;;;;21.27;16.55;;;24.40;17.50;;;;;;5030564;28;20395;-73
2021/06/26 09:59:14;;;;;;;24.05;15.50;;;24.50;17.10;;;;;;5032272;28;20410;-73
2021/06/26 10:01:48;;;;;;;19.33;13.52;;;24.60;16.70;;;;;;5045038;28;20385;-72
2021/06/26 10:04:15;;;;;;;15.48;12.05;;;24.60;16.00;;;;;;5051771;28;20937;-73
2021/06/26 10:06:42;;;;;;;21.75;13.45;;;24.80;15.50;;;;;;5052024;28;20431;-73
2021/06/26 10:09:09;;;;;;;15.10;12.88;;;25.00;14.70;;;;;;5052577;28;20397;-73
2021/06/26 10:11:36;;;;;;;18.77;13.73;;;25.00;14.50;;;;;;5050491;28;20764;-74
2021/06/26 10:14:05;;;;;;;21.73;15.23;;;25.20;13.50;;;;;;5051882;28;20484;-73
2021/06/26 10:16:32;;;;;;;24.47;16.07;;;25.10;13.90;;;;;;5051490;28;20869;-73
2021/06/26 10:19:00;;;;;;;23.42;17.58;;;25.10;14.20;;;;;;5051968;28;20917;-73
2021/06/26 10:21:27;;;;;;;19.55;15.13;;;25.10;13.60;;;;;;5051745;28;20381;-73
2021/06/26 10:23:55;;;;;;;18.63;13.30;;;25.20;13.60;;;;;;5051058;28;20401;-74
2021/06/26 10:26:22;;;;;;;22.10;14.52;;;25.40;12.90;;;;;;5039946;28;20410;-73
2021/06/26 10:28:49;;;;;;;20.58;13.60;;;25.60;12.70;;;;;;5030400;28;20406;-73
2021/06/26 10:31:16;;;;;;;21.98;16.65;;;25.70;12.60;;;;;;5031703;28;20387;-75
2021/06/26 10:33:44;;;;;;;30.63;22.13;;;25.60;11.80;;;;;;5030736;28;20757;-75
2021/06/26 10:36:09;;;;;;;21.90;14.75;;;25.70;11.70;;;;;;5046918;28;20397;-73
2021/06/26 10:38:43;;;;;;;19.92;14.85;;;25.80;12.30;;;;;;5051173;28;20982;-73
2021/06/26 10:41:19;;;;;;;23.48;16.50;;;25.80;12.00;;;;;;5051309;28;20826;-72
2021/06/26 10:43:59;;;;;;;53.10;34.58;;;25.60;11.20;;;;;;5051013;28;20377;-75
2021/06/26 10:46:25;;;;;;;19.65;15.50;;;25.70;12.00;;;;;;5051129;28;20468;-74
2021/06/26 10:49:04;;;;;;;52.85;40.45;;;25.70;11.80;;;;;;5051385;28;20393;-74
2021/06/26 10:51:40;;;;;;;21.58;16.17;;;25.80;11.90;;;;;;5051162;28;20420;-75
2021/06/26 10:54:16;;;;;;;20.02;15.07;;;26.00;11.80;;;;;;5049031;28;20480;-74
2021/06/26 10:56:44;;;;;;;19.65;15.38;;;26.20;10.70;;;;;;5049684;28;20761;-76
2021/06/26 10:59:13;;;;;;;20.20;15.00;;;26.30;10.20;;;;;;5051439;28;20405;-76
2021/06/26 11:01:39;;;;;;;18.45;15.52;;;26.40;9.70;;;;;;5050904;28;20771;-75
2021/06/26 11:04:10;;;;;;;21.98;15.48;;;26.50;9.70;;;;;;5050594;28;20472;-75
2021/06/26 11:06:38;;;;;;;18.08;13.10;;;26.60;9.30;;;;;;5049489;28;20494;-75
2021/06/26 11:09:12;;;;;;;18.77;14.43;;;26.90;9.10;;;;;;5050780;28;20412;-75
2021/06/26 11:11:40;;;;;;;17.70;15.35;;;27.20;8.30;;;;;;5050057;28;20401;-75
2021/06/26 11:14:26;;;;;;;13.65;10.13;;;27.40;8.50;;;;;;5049693;28;20393;-75
2021/06/26 11:16:54;;;;;;;12.07;9.52;;;27.40;6.00;;;;;;5050748;28;20449;-74
2021/06/26 11:19:22;;;;;;;13.20;10.55;;;27.60;6.10;;;;;;5048715;28;20417;-75
2021/06/26 11:21:53;;;;;;;15.68;11.30;;;27.80;5.40;;;;;;5043537;28;20394;-74
2021/06/26 11:24:40;;;;;;;13.43;11.82;;;27.90;6.00;;;;;;5049696;28;20428;-75
2021/06/26 11:27:08;;;;;;;17.70;13.80;;;28.00;6.10;;;;;;5050295;28;20424;-76
2021/06/26 11:29:39;;;;;;;25.13;21.02;;;28.20;5.80;;;;;;5048430;28;20397;-76
2021/06/26 11:32:25;;;;;;;14.38;11.50;;;28.40;5.60;;;;;;5049334;28;20393;-73
2021/06/26 11:35:00;;;;;;;13.60;12.10;;;28.50;4.80;;;;;;5051661;28;21153;-75
2021/06/26 11:37:34;;;;;;;13.63;11.43;;;28.50;4.80;;;;;;5042099;28;20525;-77
2021/06/26 11:40:02;;;;;;;15.57;11.50;;;28.40;4.20;;;;;;5050391;28;20512;-76
2021/06/26 11:42:28;;;;;;;12.10;10.90;;;28.40;4.40;;;;;;5048632;28;20429;-76
2021/06/26 11:44:53;;;;;;;15.48;10.52;;;28.30;4.20;;;;;;5050307;28;20420;-76
2021/06/26 11:47:26;;;;;;;14.43;10.63;;;28.40;5.10;;;;;;5050081;28;20416;-77
2021/06/26 11:49:51;;;;;;;13.70;10.23;;;28.70;4.50;;;;;;5050129;28;20385;-76
2021/06/26 11:52:17;;;;;;;12.43;10.80;;;29.00;4.30;;;;;;5065476;28;21239;-77
2021/06/26 11:54:44;;;;;;;12.53;10.97;;;28.90;3.70;;;;;;5065682;28;20401;-76
2021/06/26 11:57:14;;;;;;;11.77;10.57;;;28.70;3.60;;;;;;5049919;28;20397;-76
2021/06/26 11:59:44;;;;;;;15.77;11.70;;;28.70;4.30;;;;;;5049592;28;20960;-75
2021/06/26 12:02:11;;;;;;;11.68;10.50;;;29.40;4.20;;;;;;5051658;28;20707;-78
2021/06/26 12:04:38;;;;;;;12.82;10.73;;;29.50;4.60;;;;;;5053067;28;20428;-76
2021/06/26 12:07:07;;;;;;;12.93;10.70;;;29.60;3.40;;;;;;5044679;28;20751;-76
2021/06/26 12:09:33;;;;;;;15.52;11.18;;;29.40;3.60;;;;;;5052471;28;20910;-77
2021/06/26 12:11:59;;;;;;;15.57;11.53;;;29.30;3.10;;;;;;5051097;28;20414;-76
2021/06/26 12:14:30;;;;;;;16.45;11.93;;;29.60;3.20;;;;;;5066975;28;20404;-77
2021/06/26 12:17:13;;;;;;;14.15;11.88;;;29.50;2.90;;;;;;5052503;28;20420;-77
2021/06/26 12:19:39;;;;;;;13.90;11.45;;;29.60;2.70;;;;;;5052953;28;20408;-77
2021/06/26 12:22:07;;;;;;;13.13;11.57;;;29.60;3.10;;;;;;5032748;28;20426;-75
2021/06/26 12:24:38;;;;;;;13.73;11.23;;;29.50;2.60;;;;;;5050088;28;20807;-76
2021/06/26 12:27:25;;;;;;;17.73;11.50;;;29.50;2.70;;;;;;5044872;28;20394;-75
2021/06/26 12:29:56;;;;;;;14.70;11.75;;;29.80;2.80;;;;;;5051168;28;20520;-76